Time;durP1;ratioP1;P1;durP2;ratioP2;P2;SDS_P1;SDS_P2;PMS_P1;PMS_P2;Temp;Humidity;BMP_temperature;BMP_pressure;BME280_temperature;BME280_humidity;BME280_pressure;Samples;Min_cycle;Max_cycle;Signal;HPM_P1;HPM_P2
2021/01/26 00:01:34;;;;;;;9.55;2.67;;;;;;;;;;5096102;28;20099;-64
2021/01/26 00:04:00;;;;;;;6.68;2.30;;;;;;;;;;5096101;28;20380;-65
2021/01/26 00:06:26;;;;;;;5.88;2.22;;;;;;;;;;5095652;28;20448;-64
2021/01/26 00:08:53;;;;;;;3.53;1.60;;;;;;;;;;5096073;28;20531;-64
2021/01/26 00:11:19;;;;;;;6.13;1.67;;;;;;;;;;5095858;28;20365;-64
2021/01/26 00:13:45;;;;;;;7.65;1.85;;;;;;;;;;5095434;28;20043;-64
2021/01/26 00:16:11;;;;;;;6.32;2.25;;;;;;;;;;5095726;28;20051;-64
2021/01/26 00:18:37;;;;;;;5.00;2.33;;;;;;;;;;5095719;28;20031;-65
2021/01/26 00:21:03;;;;;;;3.53;1.75;;;;;;;;;;5095486;28;20466;-64
2021/01/26 00:23:30;;;;;;;5.78;1.90;;;;;;;;;;5095657;28;20400;-64
2021/01/26 00:25:56;;;;;;;7.43;2.97;;;;;;;;;;5095684;28;20031;-64
2021/01/26 00:28:22;;;;;;;5.50;2.15;;;;;;;;;;5095172;28;20055;-64
2021/01/26 00:30:48;;;;;;;5.18;1.95;;;;;;;;;;5095490;28;20017;-65
2021/01/26 00:33:16;;;;;;;4.25;1.90;;;;;;;;;;5095434;28;20028;-64
2021/01/26 00:35:43;;;;;;;6.32;1.80;;;;;;;;;;5093646;28;20456;-65
2021/01/26 00:38:09;;;;;;;4.53;1.73;;;;;;;;;;5095336;28;20028;-65
2021/01/26 00:40:38;;;;;;;4.63;1.85;;;;;;;;;;5094036;28;20418;-65
2021/01/26 00:43:04;;;;;;;4.95;1.90;;;;;;;;;;5093613;28;20035;-65
2021/01/26 00:45:30;;;;;;;2.58;1.10;;;;;;;;;;5095386;28;20468;-62
2021/01/26 00:47:57;;;;;;;3.83;1.30;;;;;;;;;;5094047;28;20036;-65
2021/01/26 00:50:23;;;;;;;7.97;3.40;;;;;;;;;;5094764;28;20376;-62
2021/01/26 00:52:49;;;;;;;6.03;1.63;;;;;;;;;;5093825;28;20032;-64
2021/01/26 00:55:16;;;;;;;6.43;1.92;;;;;;;;;;5094616;28;20032;-63
2021/01/26 00:57:42;;;;;;;6.72;1.80;;;;;;;;;;5095009;28;20025;-63
2021/01/26 01:00:11;;;;;;;5.75;1.63;;;;;;;;;;5093133;28;20048;-63
2021/01/26 01:02:37;;;;;;;6.05;1.73;;;;;;;;;;5093166;28;20016;-64
2021/01/26 01:05:03;;;;;;;4.40;1.50;;;;;;;;;;5095073;28;20032;-63
2021/01/26 01:07:29;;;;;;;4.85;2.08;;;;;;;;;;5093612;28;20028;-63
2021/01/26 01:09:56;;;;;;;7.75;2.15;;;;;;;;;;5094415;28;20095;-63
2021/01/26 01:12:22;;;;;;;6.70;2.22;;;;;;;;;;5093305;28;20020;-63
2021/01/26 01:14:48;;;;;;;6.55;2.10;;;;;;;;;;5094700;28;20099;-64
2021/01/26 01:17:14;;;;;;;11.43;2.28;;;;;;;;;;5094257;28;20039;-63
2021/01/26 01:19:40;;;;;;;9.13;2.38;;;;;;;;;;5093332;28;20417;-63
2021/01/26 01:22:06;;;;;;;6.50;2.22;;;;;;;;;;5094582;28;20035;-63
2021/01/26 01:24:32;;;;;;;7.47;1.95;;;;;;;;;;5094133;28;20103;-63
2021/01/26 01:26:59;;;;;;;6.28;1.75;;;;;;;;;;5093095;28;20446;-63
2021/01/26 01:29:30;;;;;;;5.80;1.80;;;;;;;;;;5093120;28;20123;-63
2021/01/26 01:31:57;;;;;;;2.53;1.20;;;;;;;;;;5092577;28;20031;-63
2021/01/26 01:34:23;;;;;;;4.97;1.20;;;;;;;;;;5094282;28;20035;-63
2021/01/26 01:36:49;;;;;;;5.53;1.50;;;;;;;;;;5094110;28;20056;-63
2021/01/26 01:39:15;;;;;;;4.32;1.23;;;;;;;;;;5093731;28;20024;-63
2021/01/26 01:41:41;;;;;;;1.55;0.82;;;;;;;;;;5093982;28;20024;-63
2021/01/26 01:44:08;;;;;;;5.45;1.52;;;;;;;;;;5094109;28;20024;-63
2021/01/26 01:46:41;;;;;;;3.88;1.38;;;;;;;;;;5093721;28;20086;-63
2021/01/26 01:49:08;;;;;;;5.03;1.67;;;;;;;;;;5094067;28;20070;-63
2021/01/26 01:51:37;;;;;;;3.88;1.17;;;;;;;;;;5093539;28;20031;-63
2021/01/26 01:54:09;;;;;;;3.60;1.27;;;;;;;;;;5093905;28;20472;-63
2021/01/26 01:56:59;;;;;;;5.00;1.13;;;;;;;;;;5093826;28;20518;-63
2021/01/26 01:59:27;;;;;;;2.80;1.30;;;;;;;;;;5093686;28;20384;-63
2021/01/26 02:01:54;;;;;;;3.22;1.10;;;;;;;;;;5093625;28;20069;-63
2021/01/26 02:04:22;;;;;;;4.05;1.60;;;;;;;;;;5093915;28;20054;-63
2021/01/26 02:06:51;;;;;;;4.80;1.58;;;;;;;;;;5093283;28;20028;-63
2021/01/26 02:09:18;;;;;;;4.88;1.45;;;;;;;;;;5093605;28;20098;-63
2021/01/26 02:11:45;;;;;;;2.53;1.10;;;;;;;;;;5092568;28;20023;-63
2021/01/26 02:14:11;;;;;;;5.10;1.83;;;;;;;;;;5093223;28;20524;-64
2021/01/26 02:16:40;;;;;;;8.27;1.77;;;;;;;;;;5092172;28;20028;-64
2021/01/26 02:19:06;;;;;;;5.55;1.80;;;;;;;;;;5093374;28;20024;-64
2021/01/26 02:21:42;;;;;;;3.83;1.27;;;;;;;;;;5091546;28;20055;-62
2021/01/26 02:24:37;;;;;;;4.28;1.85;;;;;;;;;;5093396;28;20034;-64
2021/01/26 02:27:19;;;;;;;5.78;1.45;;;;;;;;;;5092774;28;20036;-64
2021/01/26 02:30:04;;;;;;;5.18;1.40;;;;;;;;;;5093276;28;20327;-64
2021/01/26 02:32:45;;;;;;;3.38;1.10;;;;;;;;;;5093152;28;20055;-64
2021/01/26 02:35:14;;;;;;;2.60;1.10;;;;;;;;;;5092840;28;20095;-64
2021/01/26 02:37:56;;;;;;;4.50;1.23;;;;;;;;;;5093224;28;20017;-64
2021/01/26 02:40:33;;;;;;;3.80;1.33;;;;;;;;;;5093202;28;20043;-64
2021/01/26 02:43:15;;;;;;;2.78;1.15;;;;;;;;;;5093127;28;20024;-64
2021/01/26 02:45:44;;;;;;;3.20;1.02;;;;;;;;;;5091946;28;20038;-64
2021/01/26 02:48:29;;;;;;;1.70;0.88;;;;;;;;;;5091260;28;20043;-63
2021/01/26 02:50:58;;;;;;;8.02;0.98;;;;;;;;;;5091573;28;20036;-64
2021/01/26 02:53:44;;;;;;;7.63;2.30;;;;;;;;;;5091515;28;20070;-64
2021/01/26 02:56:31;;;;;;;2.50;1.10;;;;;;;;;;5092322;28;20035;-64
2021/01/26 02:59:16;;;;;;;6.93;1.38;;;;;;;;;;5092770;28;20024;-64
2021/01/26 03:01:46;;;;;;;2.63;1.10;;;;;;;;;;5092341;28;20024;-64
2021/01/26 03:04:22;;;;;;;3.65;1.27;;;;;;;;;;5092899;28;20099;-64
2021/01/26 03:06:49;;;;;;;2.75;0.90;;;;;;;;;;5092723;28;20107;-64
2021/01/26 03:09:28;;;;;;;2.95;1.15;;;;;;;;;;5092204;28;20028;-64
2021/01/26 03:12:05;;;;;;;1.95;1.08;;;;;;;;;;5091621;28;20030;-64
2021/01/26 03:14:34;;;;;;;2.40;1.13;;;;;;;;;;5091250;28;20428;-64
2021/01/26 03:17:05;;;;;;;4.80;1.52;;;;;;;;;;5092103;28;20027;-64
2021/01/26 03:19:33;;;;;;;6.82;1.73;;;;;;;;;;5092532;28;20020;-64
2021/01/26 03:22:00;;;;;;;1.83;1.00;;;;;;;;;;5092351;28;20392;-64
2021/01/26 03:24:29;;;;;;;7.97;2.72;;;;;;;;;;5090822;28;20054;-62
2021/01/26 03:26:55;;;;;;;7.80;1.20;;;;;;;;;;5092136;28;20062;-62
2021/01/26 03:29:30;;;;;;;6.28;2.72;;;;;;;;;;5092344;28;20125;-62
2021/01/26 03:31:58;;;;;;;8.10;3.85;;;;;;;;;;5090877;28;20495;-62
2021/01/26 03:34:24;;;;;;;8.57;2.70;;;;;;;;;;5092256;28;20048;-62
2021/01/26 03:36:51;;;;;;;5.10;1.27;;;;;;;;;;5091883;28;20063;-62
2021/01/26 03:39:17;;;;;;;3.20;1.23;;;;;;;;;;5092263;28;20021;-62
2021/01/26 03:41:43;;;;;;;2.83;1.20;;;;;;;;;;5092207;28;20441;-62
2021/01/26 03:44:11;;;;;;;9.65;1.90;;;;;;;;;;5092053;28;20062;-62
2021/01/26 03:46:45;;;;;;;5.90;2.63;;;;;;;;;;5092111;28;20031;-63
2021/01/26 03:49:30;;;;;;;6.53;2.80;;;;;;;;;;5092164;28;20040;-62
2021/01/26 03:52:02;;;;;;;4.97;1.95;;;;;;;;;;5091714;28;20025;-62
2021/01/26 03:54:37;;;;;;;7.53;1.67;;;;;;;;;;5092096;28;20067;-63
2021/01/26 03:57:18;;;;;;;32.05;12.70;;;;;;;;;;5092123;28;20020;-63
2021/01/26 03:59:51;;;;;;;9.43;4.05;;;;;;;;;;5090411;28;20024;-63
2021/01/26 04:02:23;;;;;;;10.20;4.05;;;;;;;;;;5092138;28;20056;-62
2021/01/26 04:05:08;;;;;;;9.60;4.15;;;;;;;;;;5092281;28;20024;-62
2021/01/26 04:07:39;;;;;;;9.48;5.35;;;;;;;;;;5091955;28;20089;-62
2021/01/26 04:10:08;;;;;;;13.05;7.05;;;;;;;;;;5092037;28;20031;-62
2021/01/26 04:12:37;;;;;;;11.30;5.00;;;;;;;;;;5091619;28;20032;-63
2021/01/26 04:15:25;;;;;;;7.95;4.03;;;;;;;;;;5090538;28;20507;-62
2021/01/26 04:17:53;;;;;;;8.80;3.80;;;;;;;;;;5091948;28;20028;-62
2021/01/26 04:20:33;;;;;;;12.85;5.60;;;;;;;;;;5091535;28;20024;-62
2021/01/26 04:23:00;;;;;;;7.93;3.67;;;;;;;;;;5092168;28;20451;-62
2021/01/26 04:25:32;;;;;;;12.80;4.75;;;;;;;;;;5092035;28;20016;-63
2021/01/26 04:27:59;;;;;;;11.18;4.95;;;;;;;;;;5091448;28;20044;-62
2021/01/26 04:30:25;;;;;;;16.67;4.45;;;;;;;;;;5091797;28;20104;-63
2021/01/26 04:32:57;;;;;;;19.65;7.50;;;;;;;;;;5091715;28;20020;-62
2021/01/26 04:35:24;;;;;;;19.45;9.15;;;;;;;;;;5092642;28;20024;-62
2021/01/26 04:37:50;;;;;;;15.90;5.97;;;;;;;;;;5094098;28;20488;-63
2021/01/26 04:40:16;;;;;;;10.60;4.93;;;;;;;;;;5094960;28;20032;-62
2021/01/26 04:42:44;;;;;;;10.30;4.75;;;;;;;;;;5095448;28;20431;-62
2021/01/26 04:45:28;;;;;;;19.55;9.27;;;;;;;;;;5095443;28;20146;-62
2021/01/26 04:47:55;;;;;;;20.92;6.72;;;;;;;;;;5094809;28;20040;-62
2021/01/26 04:50:25;;;;;;;11.85;4.55;;;;;;;;;;5095367;28;20047;-63
2021/01/26 04:53:01;;;;;;;12.13;4.60;;;;;;;;;;5095281;28;20099;-62
2021/01/26 04:55:50;;;;;;;4.15;1.88;;;;;;;;;;5093337;28;20024;-63
2021/01/26 04:58:28;;;;;;;3.72;1.23;;;;;;;;;;5095011;28;20151;-64
2021/01/26 05:01:13;;;;;;;7.82;1.88;;;;;;;;;;5095288;28;20058;-63
2021/01/26 05:03:57;;;;;;;6.28;2.10;;;;;;;;;;5095093;28;20024;-64
2021/01/26 05:06:27;;;;;;;19.95;7.80;;;;;;;;;;5094800;28;20020;-64
2021/01/26 05:08:54;;;;;;;12.38;4.65;;;;;;;;;;5094414;28;20127;-61
2021/01/26 05:11:23;;;;;;;9.52;2.88;;;;;;;;;;5093201;28;20077;-62
2021/01/26 05:13:51;;;;;;;7.50;2.90;;;;;;;;;;5092761;28;20030;-63
2021/01/26 05:16:21;;;;;;;4.75;1.95;;;;;;;;;;5091080;28;20020;-62
2021/01/26 05:19:06;;;;;;;14.23;5.15;;;;;;;;;;5092975;28;20016;-62
2021/01/26 05:21:43;;;;;;;7.38;3.65;;;;;;;;;;5092790;28;20058;-64
2021/01/26 05:24:22;;;;;;;7.00;2.97;;;;;;;;;;5092394;28;20020;-67
2021/01/26 05:26:49;;;;;;;6.82;2.90;;;;;;;;;;5092523;28;20040;-66
2021/01/26 05:29:16;;;;;;;12.98;4.88;;;;;;;;;;5094650;28;20400;-65
2021/01/26 05:31:44;;;;;;;19.27;10.30;;;;;;;;;;5094160;28;20020;-64
2021/01/26 05:34:12;;;;;;;20.10;10.20;;;;;;;;;;5094280;28;20126;-63
2021/01/26 05:36:39;;;;;;;17.83;9.70;;;;;;;;;;5093932;28;20027;-63
2021/01/26 05:39:10;;;;;;;36.05;17.20;;;;;;;;;;5094180;28;20031;-63
2021/01/26 05:41:36;;;;;;;21.15;9.85;;;;;;;;;;5092981;28;20028;-63
2021/01/26 05:44:03;;;;;;;7.38;2.83;;;;;;;;;;5092766;28;20013;-65
2021/01/26 05:46:36;;;;;;;6.20;1.92;;;;;;;;;;5093131;28;20488;-63
2021/01/26 05:49:02;;;;;;;9.90;5.43;;;;;;;;;;5091168;28;20032;-63
2021/01/26 05:51:29;;;;;;;15.70;7.50;;;;;;;;;;5092283;28;20535;-63
2021/01/26 05:54:10;;;;;;;19.73;10.35;;;;;;;;;;5092915;28;20103;-63
2021/01/26 05:56:36;;;;;;;31.88;14.70;;;;;;;;;;5093830;28;20018;-63
2021/01/26 05:59:25;;;;;;;35.50;21.60;;;;;;;;;;5093671;28;20130;-64
2021/01/26 06:01:53;;;;;;;27.60;13.13;;;;;;;;;;5092633;28;20020;-64
2021/01/26 06:04:20;;;;;;;23.42;11.02;;;;;;;;;;5092660;28;20026;-64
2021/01/26 06:06:59;;;;;;;30.48;17.38;;;;;;;;;;5093245;28;20058;-64
2021/01/26 06:09:31;;;;;;;21.45;11.18;;;;;;;;;;5092146;28;20023;-64
2021/01/26 06:12:04;;;;;;;21.33;11.43;;;;;;;;;;5093191;28;20025;-64
2021/01/26 06:14:31;;;;;;;32.13;16.48;;;;;;;;;;5093640;28;20028;-64
2021/01/26 06:17:05;;;;;;;56.90;24.83;;;;;;;;;;5092190;28;20024;-65
2021/01/26 06:19:31;;;;;;;56.42;25.30;;;;;;;;;;5093092;28;20534;-64
2021/01/26 06:21:57;;;;;;;53.55;27.75;;;;;;;;;;5093170;28;20098;-63
2021/01/26 06:24:25;;;;;;;39.53;20.35;;;;;;;;;;5093484;28;20023;-63
2021/01/26 06:27:01;;;;;;;35.17;18.95;;;;;;;;;;5092948;28;20044;-64
2021/01/26 06:29:31;;;;;;;43.75;22.50;;;;;;;;;;5086257;28;20056;-63
2021/01/26 06:32:24;;;;;;;48.72;23.15;;;;;;;;;;5103557;28;20023;-62
2021/01/26 06:35:09;;;;;;;28.73;14.00;;;;;;;;;;5108504;28;20480;-63
2021/01/26 06:37:35;;;;;;;37.95;19.00;;;;;;;;;;5112647;28;20027;-63
2021/01/26 06:40:16;;;;;;;45.83;24.05;;;;;;;;;;5112940;28;20043;-62
2021/01/26 06:43:01;;;;;;;31.08;16.65;;;;;;;;;;5113459;28;20038;-64
2021/01/26 06:45:46;;;;;;;46.53;24.58;;;;;;;;;;5111393;28;20690;-62
2021/01/26 06:48:26;;;;;;;33.22;18.15;;;;;;;;;;5111497;28;20063;-61
2021/01/26 06:51:07;;;;;;;32.50;18.40;;;;;;;;;;5110018;28;20111;-63
2021/01/26 06:53:45;;;;;;;29.08;14.55;;;;;;;;;;5107699;28;20030;-65
2021/01/26 06:56:11;;;;;;;44.15;24.05;;;;;;;;;;5089389;28;20024;-62
2021/01/26 06:58:56;;;;;;;31.65;19.23;;;;;;;;;;5090516;28;20031;-62
2021/01/26 07:01:22;;;;;;;36.97;19.73;;;;;;;;;;5089072;28;20484;-61
2021/01/26 07:04:01;;;;;;;39.35;23.20;;;;;;;;;;5091126;28;20095;-62
2021/01/26 07:06:45;;;;;;;28.67;14.73;;;;;;;;;;5089666;28;20077;-62
2021/01/26 07:09:11;;;;;;;32.97;13.38;;;;;;;;;;5089864;28;20032;-62
2021/01/26 07:11:54;;;;;;;21.15;9.95;;;;;;;;;;5090168;28;20035;-62
2021/01/26 07:14:32;;;;;;;29.25;14.57;;;;;;;;;;5090167;28;20530;-62
2021/01/26 07:17:06;;;;;;;28.02;14.65;;;;;;;;;;5090435;28;20020;-62
2021/01/26 07:19:44;;;;;;;22.25;9.65;;;;;;;;;;5090983;28;20074;-62
2021/01/26 07:22:25;;;;;;;18.75;7.25;;;;;;;;;;5091263;28;20027;-61
2021/01/26 07:25:00;;;;;;;24.75;15.05;;;;;;;;;;5091011;28;20024;-62
2021/01/26 07:27:32;;;;;;;18.45;9.45;;;;;;;;;;5088812;28;20133;-63
2021/01/26 07:30:02;;;;;;;24.13;13.00;;;;;;;;;;5105943;28;20022;-62
2021/01/26 07:32:36;;;;;;;23.48;11.80;;;;;;;;;;5110612;28;20028;-62
2021/01/26 07:35:11;;;;;;;12.98;7.75;;;;;;;;;;5103988;28;20035;-61
2021/01/26 07:37:44;;;;;;;18.80;8.40;;;;;;;;;;5098213;28;20119;-62
2021/01/26 07:40:36;;;;;;;10.68;4.10;;;;;;;;;;5090923;28;20028;-62
2021/01/26 07:43:02;;;;;;;11.10;5.40;;;;;;;;;;5057253;28;20043;-63
2021/01/26 07:45:31;;;;;;;6.78;3.50;;;;;;;;;;5089853;28;20028;-61
2021/01/26 07:48:03;;;;;;;3.60;2.10;;;;;;;;;;5102300;28;20031;-61
2021/01/26 07:50:46;;;;;;;8.45;3.85;;;;;;;;;;5109121;28;20020;-61
2021/01/26 07:53:20;;;;;;;11.65;5.65;;;;;;;;;;5097545;28;20077;-62
2021/01/26 07:55:50;;;;;;;13.98;6.15;;;;;;;;;;5087669;28;20073;-61
2021/01/26 07:58:16;;;;;;;21.88;8.55;;;;;;;;;;5088446;28;20090;-61
2021/01/26 08:00:46;;;;;;;16.05;7.07;;;;;;;;;;5086979;28;20020;-62
2021/01/26 08:03:12;;;;;;;17.35;7.05;;;;;;;;;;5106329;28;20055;-61
2021/01/26 08:05:44;;;;;;;13.07;6.03;;;;;;;;;;5110045;28;20027;-62
2021/01/26 08:08:18;;;;;;;11.13;6.13;;;;;;;;;;5100851;28;20443;-62
2021/01/26 08:10:45;;;;;;;18.42;6.30;;;;;;;;;;5100687;28;20023;-62
2021/01/26 08:13:11;;;;;;;11.40;5.05;;;;;;;;;;5115034;28;20023;-62
2021/01/26 08:15:42;;;;;;;11.15;5.03;;;;;;;;;;5115335;28;20479;-62
2021/01/26 08:18:20;;;;;;;14.73;7.68;;;;;;;;;;5113808;28;20044;-63
2021/01/26 08:20:47;;;;;;;13.43;4.72;;;;;;;;;;5115940;28;20048;-62
2021/01/26 08:23:20;;;;;;;14.07;7.63;;;;;;;;;;5113751;28;20114;-62
2021/01/26 08:25:50;;;;;;;11.35;6.30;;;;;;;;;;5115309;28;20076;-62
2021/01/26 08:28:34;;;;;;;10.02;5.15;;;;;;;;;;5086611;28;20171;-62
2021/01/26 08:31:01;;;;;;;15.02;7.95;;;;;;;;;;5094596;28;20037;-62
2021/01/26 08:33:29;;;;;;;10.63;5.57;;;;;;;;;;5094702;28;20048;-62
2021/01/26 08:35:55;;;;;;;11.20;5.43;;;;;;;;;;5094675;28;20107;-62
2021/01/26 08:38:39;;;;;;;10.48;4.97;;;;;;;;;;5095389;28;20031;-63
2021/01/26 08:41:07;;;;;;;12.15;6.13;;;;;;;;;;5092765;28;20440;-62
2021/01/26 08:43:41;;;;;;;10.15;5.65;;;;;;;;;;5093335;28;20107;-62
2021/01/26 08:46:08;;;;;;;14.73;7.30;;;;;;;;;;5104602;28;20024;-63
2021/01/26 08:48:35;;;;;;;8.90;4.32;;;;;;;;;;5102634;28;20036;-62
2021/01/26 08:51:04;;;;;;;10.00;4.03;;;;;;;;;;5094652;28;20062;-62
2021/01/26 08:53:30;;;;;;;7.47;3.58;;;;;;;;;;5094528;28;20028;-61
2021/01/26 08:56:15;;;;;;;5.80;2.63;;;;;;;;;;5094186;28;20028;-62
2021/01/26 08:58:41;;;;;;;4.25;2.25;;;;;;;;;;5093637;28;20480;-62
2021/01/26 09:01:10;;;;;;;7.72;3.30;;;;;;;;;;5092612;28;20032;-62
2021/01/26 09:03:37;;;;;;;6.55;3.38;;;;;;;;;;5094234;28;20020;-63
2021/01/26 09:06:05;;;;;;;9.02;4.45;;;;;;;;;;5092774;28;20031;-63
2021/01/26 09:08:40;;;;;;;6.43;3.08;;;;;;;;;;5093897;28;20043;-63
2021/01/26 09:11:08;;;;;;;8.05;4.10;;;;;;;;;;5094306;28;20027;-63
2021/01/26 09:13:35;;;;;;;5.88;2.58;;;;;;;;;;5094422;28;20062;-63
2021/01/26 09:16:04;;;;;;;12.48;5.85;;;;;;;;;;5092461;28;20020;-62
2021/01/26 09:18:31;;;;;;;5.55;2.63;;;;;;;;;;5094440;28;20498;-63
2021/01/26 09:21:01;;;;;;;6.13;2.95;;;;;;;;;;5094306;28;20062;-63
2021/01/26 09:23:28;;;;;;;8.68;3.90;;;;;;;;;;5093373;28;20099;-63
2021/01/26 09:25:54;;;;;;;9.90;5.47;;;;;;;;;;5094109;28;20021;-63
2021/01/26 09:28:22;;;;;;;15.02;6.95;;;;;;;;;;5093998;28;20044;-64
2021/01/26 09:30:48;;;;;;;7.93;4.75;;;;;;;;;;5093157;28;20520;-63
2021/01/26 09:33:22;;;;;;;12.20;6.38;;;;;;;;;;5089003;28;20034;-63
2021/01/26 09:35:50;;;;;;;9.65;4.30;;;;;;;;;;5093707;28;20031;-63
2021/01/26 09:38:19;;;;;;;11.95;6.22;;;;;;;;;;5091546;28;20020;-63
2021/01/26 09:40:47;;;;;;;12.50;6.00;;;;;;;;;;5093390;28;20028;-63
2021/01/26 09:43:15;;;;;;;10.70;5.68;;;;;;;;;;5093692;28;20431;-61
2021/01/26 09:45:42;;;;;;;12.38;5.30;;;;;;;;;;5094164;28;20030;-62
2021/01/26 09:48:08;;;;;;;13.30;7.82;;;;;;;;;;5092731;28;20036;-61
2021/01/26 09:50:35;;;;;;;14.57;7.35;;;;;;;;;;5093528;28;20020;-62
2021/01/26 09:53:03;;;;;;;17.10;8.30;;;;;;;;;;5093780;28;20505;-61
2021/01/26 09:55:29;;;;;;;14.50;7.70;;;;;;;;;;5093894;28;20024;-62
2021/01/26 09:57:56;;;;;;;10.27;5.30;;;;;;;;;;5093682;28;20028;-63
2021/01/26 10:00:24;;;;;;;9.68;4.65;;;;;;;;;;5055311;28;20859;-62
2021/01/26 10:02:55;;;;;;;17.42;9.07;;;;;;;;;;5086603;28;20019;-62
2021/01/26 10:05:22;;;;;;;10.68;5.05;;;;;;;;;;5111396;28;20020;-62
2021/01/26 10:08:18;;;;;;;12.52;7.38;;;;;;;;;;5113059;28;20433;-62
2021/01/26 10:10:44;;;;;;;12.93;6.53;;;;;;;;;;5099962;28;20111;-62
2021/01/26 10:13:27;;;;;;;11.90;6.75;;;;;;;;;;5113804;28;20049;-64
2021/01/26 10:15:54;;;;;;;10.57;5.32;;;;;;;;;;5113338;28;20111;-63
2021/01/26 10:18:20;;;;;;;11.27;6.65;;;;;;;;;;5112112;28;20026;-63
2021/01/26 10:20:47;;;;;;;14.13;7.85;;;;;;;;;;5113451;28;20027;-63
2021/01/26 10:23:13;;;;;;;11.68;6.03;;;;;;;;;;5101725;28;20016;-62
2021/01/26 10:25:41;;;;;;;20.83;9.00;;;;;;;;;;5105886;28;20020;-62
2021/01/26 10:28:12;;;;;;;19.60;9.23;;;;;;;;;;5092542;28;20079;-63
2021/01/26 10:30:45;;;;;;;22.92;10.32;;;;;;;;;;5094669;28;20026;-61
2021/01/26 10:33:28;;;;;;;16.58;8.57;;;;;;;;;;5110161;28;20024;-61
2021/01/26 10:35:55;;;;;;;20.00;9.95;;;;;;;;;;5112351;28;20050;-61
2021/01/26 10:38:31;;;;;;;23.45;11.10;;;;;;;;;;5111420;28;20387;-61
2021/01/26 10:41:27;;;;;;;19.52;9.32;;;;;;;;;;5112792;28;20495;-61
2021/01/26 10:44:08;;;;;;;24.50;12.90;;;;;;;;;;5098668;28;20089;-60
2021/01/26 10:46:37;;;;;;;19.90;8.73;;;;;;;;;;5112602;28;20023;-61
2021/01/26 10:49:13;;;;;;;17.95;8.25;;;;;;;;;;5112906;28;20032;-62
2021/01/26 10:51:40;;;;;;;12.35;7.53;;;;;;;;;;5112388;28;20027;-62
2021/01/26 10:54:08;;;;;;;11.10;6.28;;;;;;;;;;5112346;28;20068;-62
2021/01/26 10:56:34;;;;;;;13.27;7.53;;;;;;;;;;5112857;28;20034;-61
2021/01/26 10:59:00;;;;;;;9.85;4.95;;;;;;;;;;5112630;28;20027;-61
2021/01/26 11:01:26;;;;;;;5.50;2.70;;;;;;;;;;5112162;28;20035;-61
2021/01/26 11:03:53;;;;;;;8.93;5.35;;;;;;;;;;5112346;28;20030;-62
2021/01/26 11:06:20;;;;;;;6.78;4.00;;;;;;;;;;5112313;28;20479;-62
2021/01/26 11:08:47;;;;;;;13.07;6.53;;;;;;;;;;5112218;28;20035;-62
2021/01/26 11:11:21;;;;;;;6.47;2.72;;;;;;;;;;5112645;28;20102;-61
2021/01/26 11:13:47;;;;;;;18.95;8.95;;;;;;;;;;5112432;28;20027;-61
2021/01/26 11:16:13;;;;;;;19.80;8.85;;;;;;;;;;5112216;28;20028;-62
2021/01/26 11:18:39;;;;;;;14.27;8.75;;;;;;;;;;5112759;28;20459;-62
2021/01/26 11:21:06;;;;;;;14.60;6.90;;;;;;;;;;5103504;28;20032;-62
2021/01/26 11:23:32;;;;;;;11.32;5.90;;;;;;;;;;5091506;28;20038;-61
2021/01/26 11:25:59;;;;;;;12.25;6.07;;;;;;;;;;5091655;28;20077;-62
2021/01/26 11:28:25;;;;;;;12.45;6.90;;;;;;;;;;5091526;28;20052;-62
2021/01/26 11:30:51;;;;;;;12.10;5.93;;;;;;;;;;5091991;28;20027;-63
2021/01/26 11:33:18;;;;;;;14.40;7.35;;;;;;;;;;5091975;28;20086;-61
2021/01/26 11:35:44;;;;;;;12.75;6.90;;;;;;;;;;5091679;28;20099;-60
2021/01/26 11:38:12;;;;;;;14.48;7.70;;;;;;;;;;5068536;28;20431;-60
2021/01/26 11:40:38;;;;;;;15.07;6.90;;;;;;;;;;5090410;28;20021;-61
2021/01/26 11:43:04;;;;;;;15.95;7.95;;;;;;;;;;5090677;28;20047;-61
2021/01/26 11:45:32;;;;;;;15.57;7.35;;;;;;;;;;5094830;28;20051;-61
2021/01/26 11:47:59;;;;;;;12.00;6.85;;;;;;;;;;5095639;28;20097;-60
2021/01/26 11:50:25;;;;;;;8.38;5.05;;;;;;;;;;5094851;28;20032;-60
2021/01/26 11:52:52;;;;;;;10.55;5.82;;;;;;;;;;5094423;28;20065;-61
2021/01/26 11:55:23;;;;;;;14.85;7.28;;;;;;;;;;5095590;28;20016;-61
2021/01/26 11:57:49;;;;;;;8.55;4.45;;;;;;;;;;5095278;28;20028;-61
2021/01/26 12:00:17;;;;;;;7.75;4.30;;;;;;;;;;5094874;28;20020;-60
2021/01/26 12:02:44;;;;;;;9.73;5.03;;;;;;;;;;5095043;28;20031;-61
2021/01/26 12:05:11;;;;;;;10.05;5.43;;;;;;;;;;5093955;28;20016;-61
2021/01/26 12:07:37;;;;;;;13.32;7.18;;;;;;;;;;5094079;28;20028;-62
2021/01/26 12:10:04;;;;;;;11.95;5.28;;;;;;;;;;5095056;28;20027;-61
2021/01/26 12:12:30;;;;;;;9.45;4.63;;;;;;;;;;5094111;28;20092;-61
2021/01/26 12:14:56;;;;;;;13.27;6.80;;;;;;;;;;5092574;28;20016;-61
2021/01/26 12:17:23;;;;;;;12.70;6.75;;;;;;;;;;5095074;28;20028;-61
2021/01/26 12:19:49;;;;;;;15.52;7.57;;;;;;;;;;5094277;28;20030;-61
2021/01/26 12:22:16;;;;;;;17.30;8.95;;;;;;;;;;5090318;28;20028;-60
2021/01/26 12:24:43;;;;;;;15.18;8.15;;;;;;;;;;5094748;28;20055;-61
2021/01/26 12:27:09;;;;;;;12.18;7.45;;;;;;;;;;5093807;28;20122;-61
2021/01/26 12:29:35;;;;;;;12.60;6.10;;;;;;;;;;5094667;28;20070;-61
2021/01/26 12:32:02;;;;;;;14.25;6.80;;;;;;;;;;5106741;28;20038;-61
2021/01/26 12:34:28;;;;;;;10.30;5.20;;;;;;;;;;5114232;28;20024;-62
2021/01/26 12:36:54;;;;;;;9.88;5.18;;;;;;;;;;5114322;28;20118;-62
2021/01/26 12:39:20;;;;;;;12.30;5.65;;;;;;;;;;5113443;28;20030;-62
2021/01/26 12:41:46;;;;;;;9.35;4.30;;;;;;;;;;5114329;28;20023;-61
2021/01/26 12:44:13;;;;;;;12.93;6.65;;;;;;;;;;5114250;28;20454;-62
2021/01/26 12:46:39;;;;;;;7.88;3.95;;;;;;;;;;5114213;28;20098;-61
2021/01/26 12:49:06;;;;;;;10.18;5.55;;;;;;;;;;5115077;28;20065;-61
2021/01/26 12:51:32;;;;;;;12.23;6.03;;;;;;;;;;5114609;28;20048;-59
2021/01/26 12:53:58;;;;;;;9.13;5.30;;;;;;;;;;5114928;28;20023;-60
2021/01/26 12:56:24;;;;;;;10.68;6.13;;;;;;;;;;5114576;28;20027;-60
2021/01/26 12:58:51;;;;;;;9.18;5.05;;;;;;;;;;5113747;28;20047;-61
2021/01/26 13:01:17;;;;;;;10.45;5.45;;;;;;;;;;5114801;28;20353;-61
2021/01/26 13:03:44;;;;;;;14.18;7.07;;;;;;;;;;5114387;28;20015;-61
2021/01/26 13:06:10;;;;;;;9.75;5.10;;;;;;;;;;5113606;28;20401;-61
2021/01/26 13:08:36;;;;;;;9.63;4.53;;;;;;;;;;5114463;28;20027;-62
2021/01/26 13:11:03;;;;;;;10.60;5.25;;;;;;;;;;5114970;28;20031;-61
2021/01/26 13:13:29;;;;;;;10.43;5.53;;;;;;;;;;5114791;28;20460;-62
2021/01/26 13:15:55;;;;;;;12.77;7.22;;;;;;;;;;5114431;28;20479;-62
2021/01/26 13:18:21;;;;;;;12.50;6.82;;;;;;;;;;5114725;28;20023;-65
2021/01/26 13:20:48;;;;;;;10.95;5.35;;;;;;;;;;5112549;28;20015;-63
2021/01/26 13:23:14;;;;;;;9.73;6.15;;;;;;;;;;5113283;28;20028;-63
2021/01/26 13:25:42;;;;;;;12.63;7.18;;;;;;;;;;5112797;28;20055;-61
2021/01/26 13:28:09;;;;;;;13.07;6.85;;;;;;;;;;5111991;28;20048;-63
2021/01/26 13:30:35;;;;;;;14.25;6.38;;;;;;;;;;5112971;28;20026;-61
2021/01/26 13:33:02;;;;;;;15.48;9.45;;;;;;;;;;5111715;28;20051;-61
2021/01/26 13:35:34;;;;;;;10.85;5.80;;;;;;;;;;5114101;28;20044;-61
2021/01/26 13:38:01;;;;;;;17.37;6.80;;;;;;;;;;5114541;28;20027;-61
2021/01/26 13:40:27;;;;;;;11.50;5.53;;;;;;;;;;5112945;28;20054;-61
2021/01/26 13:42:56;;;;;;;13.52;7.72;;;;;;;;;;5112785;28;20080;-61
2021/01/26 13:45:23;;;;;;;11.23;6.00;;;;;;;;;;5114409;28;20391;-61
2021/01/26 13:47:49;;;;;;;11.13;5.68;;;;;;;;;;5114232;28;20540;-61
2021/01/26 13:50:18;;;;;;;12.50;6.10;;;;;;;;;;5113890;28;20062;-61
2021/01/26 13:52:44;;;;;;;11.63;6.35;;;;;;;;;;5112750;28;20023;-62
2021/01/26 13:55:11;;;;;;;14.98;7.47;;;;;;;;;;5114308;28;20375;-61
2021/01/26 13:57:37;;;;;;;15.85;8.27;;;;;;;;;;5113797;28;20475;-61
2021/01/26 14:00:08;;;;;;;17.60;9.38;;;;;;;;;;5112635;28;20027;-62
2021/01/26 14:02:35;;;;;;;17.55;9.38;;;;;;;;;;5113456;28;20038;-62
2021/01/26 14:05:01;;;;;;;14.50;7.07;;;;;;;;;;5113608;28;20480;-62
2021/01/26 14:07:28;;;;;;;12.13;6.65;;;;;;;;;;5112422;28;20032;-62
2021/01/26 14:09:54;;;;;;;19.90;11.43;;;;;;;;;;5113439;28;20028;-62
2021/01/26 14:12:20;;;;;;;15.90;8.48;;;;;;;;;;5113495;28;20015;-62
2021/01/26 14:14:47;;;;;;;17.15;9.10;;;;;;;;;;5113839;28;20043;-62
2021/01/26 14:17:13;;;;;;;13.18;7.28;;;;;;;;;;5113596;28;20411;-62
2021/01/26 14:19:39;;;;;;;19.35;10.32;;;;;;;;;;5113785;28;20026;-62
2021/01/26 14:22:05;;;;;;;9.55;4.80;;;;;;;;;;5112296;28;20077;-62
2021/01/26 14:24:31;;;;;;;15.70;7.35;;;;;;;;;;5113210;28;20023;-61
2021/01/26 14:26:58;;;;;;;10.77;6.43;;;;;;;;;;5111989;28;20130;-61
2021/01/26 14:29:24;;;;;;;12.40;5.55;;;;;;;;;;5113062;28;20028;-62
2021/01/26 14:31:50;;;;;;;12.27;6.28;;;;;;;;;;5111614;28;20020;-62
2021/01/26 14:34:16;;;;;;;13.18;6.88;;;;;;;;;;5113124;28;20028;-63
2021/01/26 14:36:43;;;;;;;12.32;7.00;;;;;;;;;;5113336;28;20011;-63
2021/01/26 14:39:09;;;;;;;9.20;5.55;;;;;;;;;;5112996;28;20072;-62
2021/01/26 14:41:36;;;;;;;12.02;6.40;;;;;;;;;;5111929;28;20020;-62
2021/01/26 14:44:02;;;;;;;14.88;8.90;;;;;;;;;;5113068;28;20023;-62
2021/01/26 14:46:29;;;;;;;16.65;10.05;;;;;;;;;;5111346;28;20085;-62
2021/01/26 14:48:55;;;;;;;26.73;11.80;;;;;;;;;;5112943;28;20545;-62
2021/01/26 14:51:22;;;;;;;20.15;11.38;;;;;;;;;;5111653;28;20491;-63